Terminal Aerodrome Forecast
Issued by NWS

Current Version | Previous Version | Graphics & Text | Print | Product List | Glossary On
Versions: 1 2 3 4 5 6 7 8 9 10 11 12 13 14 15 16 17 18
415
FTUS41 KILN 240856 AAA
TAFLUK
TAF AMD
KLUK 240856Z 2409/2506 00000KT P6SM FEW080 SCT250
     FM241000 00000KT 3SM BR SCT005
     FM241300 30006KT P6SM SCT005
     FM241600 32008KT P6SM SCT035
     FM250000 35006KT P6SM SCT035
     FM250500 00000KT P6SM SKC=

USA.gov is the U.S. government's official web portal to all federal, state and local government web resources and services.